Aérodrome :
LOGIN :

S'inscrire | Disclaimer

   EN    FR    IT 

 










Légende :    VFR   VFR Marginal   IFR   IFR Intensif   IFR Très Intensif
Visi : 
Plafond : 
>= 8 km
>= 3000ft
5 à 8 km
1000 à 3000 ft
1500m à 5 km
500 à 1000 ft
800 à 1500m
200 à 500 ft
< 800m
< 200 ft
Symboles :   Orages  Brouillard  Fortes neiges  Fortes précipitations  Vent > 20 kt
SIGMETs :   Divers  Orages  Givrage  Turbulence  Onde Orograph.  Cendres Volcan.







- Altitude de l'aérodrome : 348 ft
- Code IATA : LDV
- Voir les cartes d'approche


LFRJ - Landivisiau

DERNIER METAR :
  • 171430Z AUTO 09005KT 7000 BKN007 BKN011 OVC017 14/13 Q1018 BECMG 3000 DZ BR

METARs EXPIRÉS :
  • 171400Z AUTO 13004KT 4000 -DZ BR BKN005 BKN012 OVC024 14/14 Q1017 TEMPO 2500 RADZ BR
  • 171330Z AUTO 12006KT 2700 -DZ BR SCT003 OVC009 14/13 Q1017 BECMG 4000 BR BKN002 OVC005
  • 171300Z AUTO 14006KT 3100 BR BKN004 OVC009 14/13 Q1017 BECMG 2500 RADZ BR
  • 171230Z AUTO 15006KT 5000 BR BKN005 OVC009 14/13 Q1018 BECMG 2500 RADZ BR
  • 171200Z AUTO 17005KT 5000 -DZ BR BKN003 OVC007 14/14 Q1018 BECMG 2500 RADZ BR

TAF TAF LFRJ
Valide du 17 à 15h jusqu'au 18 à 00h UTC


171400Z 1715/1724 13005KT 3000 DZ BR OVC003
TEMPO 1715/1724 OVC006
PROB30
TEMPO 1720/1722 8000 BKN008 OVC012
Pas de NOTAMs connus pour ce terrain.



MET'MAP, la Météo Aéronautique d'un coup d'oeil ! - Copyright ORBIFLY Décembre 2007 - Disclaimer

ORBIFLY MET'MAP TEAM :

Programmation & Développement : Alexandra Zaïnal
Conception & Développement : Baudouin d'Aumeries
Co-Programmation & Développement : Marc-Olivier Méhu
Soutien technique & logistique : Manuel Goepfert

Contact : metmap@orbifly.com




SOURCES & CREDITS :

   NOAA